createdAt,value
2022-11-24T00:01:07.487Z,7.70
2022-11-24T00:03:59.284Z,7.90
2022-11-24T00:06:45.268Z,7.90
2022-11-24T00:09:30.773Z,7.90
2022-11-24T00:12:16.514Z,8.00
2022-11-24T00:15:02.214Z,8.10
2022-11-24T00:17:47.937Z,7.80
2022-11-24T00:20:33.387Z,8.30
2022-11-24T00:23:18.972Z,8.20
2022-11-24T00:26:19.483Z,8.30
2022-11-24T00:29:07.699Z,8.10
2022-11-24T00:31:53.314Z,8.00
2022-11-24T00:34:39.112Z,7.90
2022-11-24T00:37:24.815Z,7.90
2022-11-24T00:40:10.763Z,8.40
2022-11-24T00:42:56.344Z,7.80
2022-11-24T00:45:43.404Z,7.80
2022-11-24T00:48:29.094Z,8.10
2022-11-24T00:51:16.487Z,8.10
2022-11-24T00:54:02.230Z,8.10
2022-11-24T00:56:47.963Z,8.10
2022-11-24T00:59:33.828Z,8.20
2022-11-24T01:02:19.214Z,8.10
2022-11-24T01:05:05.735Z,7.60
2022-11-24T01:07:51.233Z,7.80
2022-11-24T01:10:36.795Z,7.50
2022-11-24T01:13:22.316Z,7.80
2022-11-24T01:16:15.258Z,8.10
2022-11-24T01:19:01.347Z,8.30
2022-11-24T01:21:47.532Z,8.10
2022-11-24T01:24:33.396Z,8.10
2022-11-24T01:27:19.013Z,7.70
2022-11-24T01:30:06.608Z,7.40
2022-11-24T01:32:52.345Z,7.20
2022-11-24T01:35:37.730Z,6.70
2022-11-24T01:38:23.700Z,7.00
2022-11-24T01:41:17.280Z,6.70
2022-11-24T01:44:25.543Z,7.20
2022-11-24T01:47:40.844Z,7.20
2022-11-24T01:50:26.294Z,7.10
2022-11-24T01:53:14.063Z,7.30
2022-11-24T01:56:00.004Z,7.60
2022-11-24T01:58:46.983Z,7.60
2022-11-24T02:01:33.109Z,7.30
2022-11-24T02:04:25.575Z,7.50
2022-11-24T02:07:13.733Z,7.70
2022-11-24T02:10:21.218Z,7.60
2022-11-24T02:13:06.800Z,7.10
2022-11-24T02:15:53.508Z,8.40
2022-11-24T02:18:40.115Z,7.10
2022-11-24T02:21:25.879Z,6.80
2022-11-24T02:24:29.842Z,6.60
2022-11-24T02:27:15.784Z,7.00
2022-11-24T02:30:01.742Z,7.10
2022-11-24T02:32:47.374Z,7.30
2022-11-24T02:35:33.314Z,7.30
2022-11-24T02:38:19.326Z,7.30
2022-11-24T02:41:08.572Z,7.00
2022-11-24T02:44:01.595Z,7.00
2022-11-24T02:46:47.016Z,7.10
2022-11-24T02:49:32.901Z,6.90
2022-11-24T02:52:19.859Z,6.50
2022-11-24T02:55:05.701Z,6.70
2022-11-24T02:57:51.476Z,6.70
2022-11-24T03:00:37.212Z,7.50
2022-11-24T03:03:22.856Z,6.80
2022-11-24T03:06:08.667Z,6.30
2022-11-24T03:08:54.234Z,6.00
2022-11-24T03:11:40.179Z,6.00
2022-11-24T03:14:26.002Z,6.30
2022-11-24T03:17:11.414Z,6.60
2022-11-24T03:20:01.462Z,6.30
2022-11-24T03:22:50.127Z,5.90
2022-11-24T03:25:36.127Z,5.80
2022-11-24T03:28:21.970Z,5.70
2022-11-24T03:31:08.786Z,7.00
2022-11-24T03:33:54.545Z,6.20
2022-11-24T03:36:40.089Z,5.90
2022-11-24T03:39:25.561Z,6.20
2022-11-24T03:42:11.149Z,6.30
2022-11-24T03:44:56.911Z,6.70
2022-11-24T03:47:42.527Z,7.00
2022-11-24T03:50:28.075Z,6.60
2022-11-24T03:53:13.620Z,6.40
2022-11-24T03:55:59.536Z,6.00
2022-11-24T03:58:45.036Z,6.10
2022-11-24T04:01:30.627Z,5.80
2022-11-24T04:04:16.212Z,6.00
2022-11-24T04:07:02.406Z,5.90
2022-11-24T04:09:47.718Z,5.40
2022-11-24T04:12:45.246Z,6.30
2022-11-24T04:15:30.988Z,5.80
2022-11-24T04:18:16.739Z,5.90
2022-11-24T04:21:02.762Z,6.20
2022-11-24T04:23:48.296Z,6.30
2022-11-24T04:26:34.022Z,6.40
2022-11-24T04:29:19.377Z,6.40
2022-11-24T04:32:05.093Z,6.40
2022-11-24T04:34:50.989Z,6.50
2022-11-24T04:37:36.870Z,6.50
2022-11-24T04:40:22.649Z,6.40
2022-11-24T04:43:09.195Z,6.40
2022-11-24T04:45:55.438Z,6.30
2022-11-24T04:48:42.069Z,6.30
2022-11-24T04:51:27.538Z,6.40
2022-11-24T04:54:14.443Z,6.40
2022-11-24T04:57:00.133Z,6.40
2022-11-24T04:59:46.057Z,6.20
2022-11-24T05:02:31.715Z,6.10
2022-11-24T05:05:17.618Z,7.20
2022-11-24T05:08:03.251Z,6.10
2022-11-24T05:10:49.002Z,6.20
2022-11-24T05:13:34.556Z,6.30
2022-11-24T05:16:20.077Z,6.40
2022-11-24T05:19:05.792Z,6.00
2022-11-24T05:21:52.399Z,6.10
2022-11-24T05:24:38.021Z,6.20
2022-11-24T05:27:23.615Z,6.40
2022-11-24T05:30:10.143Z,6.60
2022-11-24T05:32:55.780Z,6.70
2022-11-24T05:35:41.397Z,6.50
2022-11-24T05:38:27.071Z,6.60
2022-11-24T05:41:12.486Z,6.80
2022-11-24T05:43:58.016Z,7.10
2022-11-24T05:46:43.624Z,6.70
2022-11-24T05:49:29.103Z,6.70
2022-11-24T05:52:14.793Z,7.00
2022-11-24T05:55:00.655Z,6.60
2022-11-24T05:57:46.687Z,6.70
2022-11-24T06:00:33.545Z,6.60
2022-11-24T06:03:18.964Z,6.80
2022-11-24T06:06:04.718Z,6.90
2022-11-24T06:08:50.228Z,6.90
2022-11-24T06:11:35.764Z,6.90
2022-11-24T06:14:21.441Z,7.00
2022-11-24T06:17:07.641Z,7.10
2022-11-24T06:19:53.519Z,6.80
2022-11-24T06:22:39.434Z,6.30
2022-11-24T06:25:24.963Z,6.20
2022-11-24T06:28:10.622Z,6.60
2022-11-24T06:30:59.859Z,6.10
2022-11-24T06:33:45.622Z,6.00
2022-11-24T06:36:31.622Z,6.10
2022-11-24T06:39:17.050Z,6.10
2022-11-24T06:42:03.064Z,6.20
2022-11-24T06:44:49.303Z,5.80
2022-11-24T06:47:35.897Z,5.50
2022-11-24T06:50:21.782Z,5.80
2022-11-24T06:53:07.971Z,6.10
2022-11-24T06:55:57.226Z,6.20
2022-11-24T06:58:45.622Z,6.40
2022-11-24T07:01:32.322Z,6.60
2022-11-24T07:04:18.294Z,6.10
2022-11-24T07:07:03.876Z,5.30
2022-11-24T07:09:49.492Z,5.50
2022-11-24T07:12:35.389Z,5.70
2022-11-24T07:15:22.417Z,6.30
2022-11-24T07:18:08.118Z,6.60
2022-11-24T07:20:53.640Z,6.80
2022-11-24T07:23:39.472Z,7.00
2022-11-24T07:26:26.318Z,6.90
2022-11-24T07:29:12.650Z,6.20
2022-11-24T07:32:04.973Z,6.10
2022-11-24T07:34:51.300Z,6.30
2022-11-24T07:37:36.853Z,7.40
2022-11-24T07:40:23.520Z,8.00
2022-11-24T07:43:09.411Z,8.10
2022-11-24T07:45:56.622Z,7.40
2022-11-24T07:48:42.332Z,6.90
2022-11-24T07:51:29.045Z,6.30
2022-11-24T07:54:14.601Z,6.20
2022-11-24T07:57:00.334Z,5.80
2022-11-24T07:59:46.434Z,5.70
2022-11-24T08:02:32.371Z,5.80
2022-11-24T08:05:18.090Z,6.20
2022-11-24T08:08:03.660Z,6.80
2022-11-24T08:10:49.926Z,7.50
2022-11-24T08:13:36.778Z,8.60
2022-11-24T08:16:23.103Z,9.80
2022-11-24T08:19:10.884Z,9.70
2022-11-24T08:21:56.266Z,10.20
2022-11-24T08:24:46.700Z,10.20
2022-11-24T08:27:32.490Z,10.60
2022-11-24T08:30:20.140Z,8.40
2022-11-24T08:33:05.758Z,8.10
2022-11-24T08:35:51.585Z,8.60
2022-11-24T08:38:37.304Z,8.90
2022-11-24T08:41:22.853Z,8.50
2022-11-24T08:44:10.514Z,8.30
2022-11-24T08:46:56.347Z,7.80
2022-11-24T08:49:41.640Z,7.70
2022-11-24T08:52:27.736Z,7.60
2022-11-24T08:55:13.413Z,7.60
2022-11-24T08:57:59.352Z,7.70
2022-11-24T09:00:44.641Z,8.00
2022-11-24T09:03:30.424Z,7.50
2022-11-24T09:06:17.874Z,8.80
2022-11-24T09:09:03.515Z,9.80
2022-11-24T09:11:49.872Z,11.00
2022-11-24T09:14:35.837Z,13.50
2022-11-24T09:17:21.615Z,13.80
2022-11-24T09:20:07.413Z,13.50
2022-11-24T09:22:53.091Z,12.50
2022-11-24T09:25:38.970Z,14.80
2022-11-24T09:28:24.949Z,18.20
2022-11-24T09:31:13.138Z,19.40
2022-11-24T09:33:59.640Z,17.90
2022-11-24T09:36:45.240Z,15.70
2022-11-24T09:39:30.767Z,14.50
2022-11-24T09:42:31.409Z,15.60
2022-11-24T09:46:04.381Z,17.40
2022-11-24T09:48:51.217Z,20.30
2022-11-24T09:51:37.868Z,21.40
2022-11-24T09:54:28.385Z,21.40
2022-11-24T09:57:15.838Z,17.80
2022-11-24T10:00:07.727Z,13.60
2022-11-24T10:02:58.049Z,11.00
2022-11-24T10:05:45.415Z,10.50
2022-11-24T10:09:03.836Z,10.80
2022-11-24T10:12:27.726Z,10.20
2022-11-24T10:15:27.179Z,10.60
2022-11-24T10:18:18.964Z,10.60
2022-11-24T10:21:28.821Z,10.70
2022-11-24T10:24:44.114Z,10.90
2022-11-24T10:27:54.592Z,10.00
2022-11-24T10:30:40.803Z,9.90
2022-11-24T10:33:30.871Z,10.50
2022-11-24T10:36:42.862Z,10.70
2022-11-24T10:39:39.320Z,11.10
2022-11-24T10:42:37.069Z,10.50
2022-11-24T10:45:23.318Z,9.90
2022-11-24T10:48:25.756Z,10.20
2022-11-24T10:51:51.181Z,10.00
2022-11-24T10:54:37.030Z,10.20
2022-11-24T10:57:34.669Z,10.20
2022-11-24T11:00:20.143Z,9.80
2022-11-24T11:03:18.414Z,10.00
2022-11-24T11:06:29.737Z,10.60
2022-11-24T11:09:22.145Z,10.70
2022-11-24T11:12:42.693Z,10.10
2022-11-24T11:15:30.652Z,10.20
2022-11-24T11:18:18.165Z,10.50
2022-11-24T11:21:05.331Z,10.80
2022-11-24T11:23:51.956Z,11.30
2022-11-24T11:26:38.692Z,11.70
2022-11-24T11:35:39.236Z,11.50
2022-11-24T11:38:35.613Z,11.10
2022-11-24T11:41:30.509Z,11.20
2022-11-24T11:44:46.616Z,11.60
2022-11-24T11:47:57.466Z,12.00
2022-11-24T11:54:10.643Z,11.30
2022-11-24T11:57:04.926Z,11.20
2022-11-24T12:00:03.248Z,11.20
2022-11-24T12:03:24.189Z,11.40
2022-11-24T12:06:22.164Z,11.40
2022-11-24T12:09:41.567Z,11.40
2022-11-24T12:12:58.618Z,11.30
2022-11-24T12:15:51.590Z,11.60
2022-11-24T12:18:59.410Z,11.50
2022-11-24T12:21:57.804Z,11.70
2022-11-24T12:24:51.029Z,12.20
2022-11-24T12:28:05.968Z,12.50
2022-11-24T12:31:25.376Z,12.80
2022-11-24T12:34:26.264Z,12.60
2022-11-24T12:37:27.199Z,12.50
2022-11-24T12:40:46.816Z,11.90
2022-11-24T12:43:42.057Z,12.10
2022-11-24T12:47:05.384Z,12.60
2022-11-24T12:49:59.131Z,12.80
2022-11-24T12:53:05.312Z,12.70
2022-11-24T12:55:51.537Z,12.50
2022-11-24T12:58:45.688Z,13.50
2022-11-24T13:01:57.562Z,12.70
2022-11-24T13:05:11.101Z,12.70
2022-11-24T13:07:59.854Z,12.30
2022-11-24T13:11:01.134Z,12.10
2022-11-24T13:14:22.887Z,12.20
2022-11-24T13:17:35.240Z,12.60
2022-11-24T13:20:35.864Z,12.90
2022-11-24T13:23:26.841Z,13.00
2022-11-24T13:26:42.290Z,13.00
2022-11-24T13:29:27.989Z,12.90
2022-11-24T13:32:17.669Z,12.80
2022-11-24T13:35:15.306Z,12.70
2022-11-24T13:38:00.871Z,12.60
2022-11-24T13:41:13.007Z,12.40
2022-11-24T13:44:17.695Z,12.50
2022-11-24T13:47:25.902Z,12.50
2022-11-24T13:50:21.492Z,12.60
2022-11-24T13:53:35.154Z,12.70
2022-11-24T13:56:30.912Z,12.70
2022-11-24T13:59:34.172Z,12.90
2022-11-24T14:02:24.312Z,13.20
2022-11-24T14:05:14.713Z,12.90
2022-11-24T14:08:01.840Z,12.70
2022-11-24T14:10:50.306Z,13.00
2022-11-24T14:13:36.076Z,13.00
2022-11-24T14:16:23.381Z,13.00
2022-11-24T14:19:12.111Z,13.00
2022-11-24T14:21:57.811Z,12.80
2022-11-24T14:24:47.282Z,12.70
2022-11-24T14:27:37.229Z,12.60
2022-11-24T14:30:28.972Z,12.60
2022-11-24T14:33:18.725Z,12.80
2022-11-24T14:36:06.887Z,12.70
2022-11-24T14:38:53.201Z,13.00
2022-11-24T14:41:39.725Z,13.00
2022-11-24T14:44:32.120Z,12.90
2022-11-24T14:47:31.754Z,12.90
2022-11-24T14:50:19.663Z,12.80
2022-11-24T14:53:13.853Z,12.80
2022-11-24T14:56:21.546Z,12.80
2022-11-24T14:59:39.854Z,12.70
2022-11-24T15:02:44.773Z,12.60
2022-11-24T15:06:02.938Z,12.60
2022-11-24T15:08:52.225Z,12.50
2022-11-24T15:11:38.270Z,12.40
2022-11-24T15:14:33.201Z,12.60
2022-11-24T15:17:25.790Z,12.60
2022-11-24T15:20:23.302Z,12.40
2022-11-24T15:23:27.742Z,12.30
2022-11-24T15:26:13.512Z,12.30
2022-11-24T15:28:59.161Z,12.10
2022-11-24T15:31:49.342Z,12.10
2022-11-24T15:34:37.997Z,12.30
2022-11-24T15:37:23.540Z,12.10
2022-11-24T15:40:10.856Z,12.30
2022-11-24T15:42:59.622Z,12.20
2022-11-24T15:45:49.344Z,12.20
2022-11-24T15:48:35.475Z,12.10
2022-11-24T15:51:23.564Z,12.20
2022-11-24T15:54:13.627Z,12.00
2022-11-24T15:57:00.889Z,11.90
2022-11-24T15:59:46.710Z,11.90
2022-11-24T16:02:32.670Z,11.80
2022-11-24T16:05:21.182Z,12.00
2022-11-24T16:08:12.330Z,12.00
2022-11-24T16:10:58.258Z,11.80
2022-11-24T16:13:50.127Z,11.70
2022-11-24T16:16:37.879Z,11.80
2022-11-24T16:19:23.839Z,11.50
2022-11-24T16:22:09.775Z,11.30
2022-11-24T16:24:55.676Z,11.30
2022-11-24T16:27:42.025Z,11.60
2022-11-24T16:30:27.593Z,11.60
2022-11-24T16:33:13.364Z,11.40
2022-11-24T16:35:59.404Z,11.30
2022-11-24T16:38:48.051Z,11.60
2022-11-24T16:41:33.868Z,11.60
2022-11-24T16:44:19.313Z,11.70
2022-11-24T16:47:04.957Z,11.80
2022-11-24T16:49:50.894Z,11.70
2022-11-24T16:52:36.894Z,11.60
2022-11-24T16:55:25.000Z,11.60
2022-11-24T16:58:10.568Z,12.10
2022-11-24T17:01:02.373Z,10.90
2022-11-24T17:03:48.218Z,10.90
2022-11-24T17:06:34.416Z,10.90
2022-11-24T17:09:20.111Z,11.10
2022-11-24T17:12:05.857Z,10.90
2022-11-24T17:15:16.408Z,10.50
2022-11-24T17:18:22.875Z,10.20
2022-11-24T17:21:09.180Z,10.20
2022-11-24T17:23:57.016Z,10.00
2022-11-24T17:26:47.467Z,10.40
2022-11-24T17:29:35.107Z,10.60
2022-11-24T17:32:20.893Z,10.60
2022-11-24T17:35:07.113Z,10.60
2022-11-24T17:37:52.806Z,10.40
2022-11-24T17:40:38.571Z,10.10
2022-11-24T17:43:24.592Z,10.40
2022-11-24T17:46:11.005Z,10.40
2022-11-24T17:49:00.347Z,10.40
2022-11-24T17:51:50.399Z,10.00
2022-11-24T17:54:57.073Z,9.60
2022-11-24T17:57:43.069Z,9.90
2022-11-24T18:00:29.935Z,10.20
2022-11-24T18:03:15.616Z,10.10
2022-11-24T18:06:19.720Z,9.90
2022-11-24T18:09:06.269Z,10.20
2022-11-24T18:11:52.214Z,10.30
2022-11-24T18:14:38.498Z,10.10
2022-11-24T18:17:24.203Z,9.60
2022-11-24T18:20:10.709Z,9.70
2022-11-24T18:23:08.026Z,9.80
2022-11-24T18:25:59.443Z,9.60
2022-11-24T18:28:45.759Z,9.80
2022-11-24T18:31:32.348Z,9.80
2022-11-24T18:34:18.006Z,9.90
2022-11-24T18:37:03.354Z,9.80
2022-11-24T18:39:49.042Z,9.80
2022-11-24T18:42:34.626Z,9.70
2022-11-24T18:45:20.250Z,10.00
2022-11-24T18:48:05.982Z,9.80
2022-11-24T18:50:53.495Z,9.70
2022-11-24T18:53:39.256Z,9.70
2022-11-24T18:56:26.002Z,9.60
2022-11-24T18:59:11.730Z,9.30
2022-11-24T19:01:58.130Z,9.00
2022-11-24T19:04:43.996Z,9.00
2022-11-24T19:07:29.684Z,9.10
2022-11-24T19:10:16.145Z,9.10
2022-11-24T19:13:02.200Z,9.00
2022-11-24T19:15:49.787Z,8.90
2022-11-24T19:18:35.457Z,8.80
2022-11-24T19:21:21.969Z,8.70
2022-11-24T19:24:10.754Z,8.80
2022-11-24T19:26:57.213Z,8.80
2022-11-24T19:29:43.281Z,8.70
2022-11-24T19:32:31.652Z,8.80
2022-11-24T19:35:17.708Z,8.90
2022-11-24T19:38:03.375Z,9.00
2022-11-24T19:40:49.253Z,9.00
2022-11-24T19:43:35.025Z,9.00
2022-11-24T19:46:22.472Z,9.00
2022-11-24T19:49:08.969Z,9.00
2022-11-24T19:51:54.507Z,8.90
2022-11-24T19:54:40.653Z,8.80
2022-11-24T19:57:26.748Z,8.70
2022-11-24T20:00:13.919Z,8.70
2022-11-24T20:02:59.665Z,8.60
2022-11-24T20:05:57.217Z,8.40
2022-11-24T20:08:43.587Z,8.20
2022-11-24T20:11:29.727Z,8.10
2022-11-24T20:14:18.074Z,8.10
2022-11-24T20:17:06.751Z,8.10
2022-11-24T20:19:52.441Z,8.20
2022-11-24T20:22:38.065Z,8.10
2022-11-24T20:25:23.573Z,8.00
2022-11-24T20:28:09.148Z,8.20
2022-11-24T20:30:54.624Z,8.20
2022-11-24T20:33:40.731Z,8.10
2022-11-24T20:36:29.126Z,8.40
2022-11-24T20:39:21.284Z,8.30
2022-11-24T20:42:07.459Z,8.30
2022-11-24T20:44:53.078Z,8.20
2022-11-24T20:47:38.656Z,8.20
2022-11-24T20:50:24.363Z,8.20
2022-11-24T20:53:10.332Z,8.10
2022-11-24T20:56:06.672Z,8.10
2022-11-24T20:58:52.738Z,8.50
2022-11-24T21:01:42.416Z,8.70
2022-11-24T21:04:28.059Z,8.70
2022-11-24T21:07:14.719Z,8.80
2022-11-24T21:10:00.363Z,9.00
2022-11-24T21:12:46.159Z,9.00
2022-11-24T21:15:31.798Z,8.70
2022-11-24T21:18:18.760Z,8.60
2022-11-24T21:21:04.366Z,8.70
2022-11-24T21:23:51.034Z,8.80
2022-11-24T21:26:38.157Z,8.70
2022-11-24T21:29:25.655Z,8.70
2022-11-24T21:32:11.075Z,8.60
2022-11-24T21:34:56.866Z,8.20
2022-11-24T21:37:42.822Z,7.70
2022-11-24T21:40:28.383Z,7.50
2022-11-24T21:43:14.273Z,9.00
2022-11-24T21:46:07.972Z,8.10
2022-11-24T21:48:54.320Z,8.20
2022-11-24T21:51:40.070Z,8.40
2022-11-24T21:54:25.929Z,8.40
2022-11-24T21:57:11.708Z,8.60
2022-11-24T21:59:57.418Z,8.60
2022-11-24T22:02:43.376Z,8.70
2022-11-24T22:05:29.346Z,8.70
2022-11-24T22:08:15.191Z,8.60
2022-11-24T22:11:02.232Z,8.20
2022-11-24T22:13:48.591Z,7.80
2022-11-24T22:16:34.311Z,8.00
2022-11-24T22:19:19.877Z,8.50
2022-11-24T22:22:05.488Z,8.40
2022-11-24T22:24:51.339Z,8.90
2022-11-24T22:27:37.161Z,9.10
2022-11-24T22:30:23.299Z,9.00
2022-11-24T22:33:09.347Z,9.00
2022-11-24T22:36:03.204Z,9.10
2022-11-24T22:39:03.103Z,8.90
2022-11-24T22:41:48.946Z,9.00
2022-11-24T22:44:34.732Z,9.10
2022-11-24T22:47:20.623Z,9.00
2022-11-24T22:50:07.076Z,9.00
2022-11-24T22:52:52.757Z,8.50
2022-11-24T22:55:38.772Z,8.60
2022-11-24T22:58:24.395Z,8.70
2022-11-24T23:01:15.787Z,8.70
2022-11-24T23:04:02.464Z,8.60
2022-11-24T23:06:48.230Z,8.60
2022-11-24T23:09:34.010Z,8.80
2022-11-24T23:12:19.815Z,8.70
2022-11-24T23:15:05.948Z,8.70
2022-11-24T23:17:51.763Z,8.80
2022-11-24T23:20:37.734Z,8.40
2022-11-24T23:23:23.372Z,8.40
2022-11-24T23:26:12.008Z,8.70
2022-11-24T23:28:58.422Z,8.80
2022-11-24T23:31:43.961Z,9.00
2022-11-24T23:34:29.808Z,9.10
2022-11-24T23:37:15.660Z,9.10
2022-11-24T23:40:01.445Z,9.10
2022-11-24T23:42:48.234Z,9.20
2022-11-24T23:45:34.010Z,9.20
2022-11-24T23:48:19.645Z,9.30
2022-11-24T23:51:07.389Z,9.20
2022-11-24T23:53:53.424Z,9.20
2022-11-24T23:56:39.277Z,9.10
2022-11-24T23:59:25.287Z,9.10
